sensor_id;sensor_type;location;lat;lon;timestamp;P1;durP1;ratioP1;P2;durP2;ratioP2
12921;SDS011;6528;48.086;16.282;2024-01-27T00:01:21;0.63;;;0.60;;
12921;SDS011;6528;48.086;16.282;2024-01-27T00:03:48;0.60;;;0.60;;
12921;SDS011;6528;48.086;16.282;2024-01-27T00:06:16;0.80;;;0.60;;
12921;SDS011;6528;48.086;16.282;2024-01-27T00:08:44;0.80;;;0.60;;
12921;SDS011;6528;48.086;16.282;2024-01-27T00:11:12;0.50;;;0.50;;
12921;SDS011;6528;48.086;16.282;2024-01-27T00:13:39;0.70;;;0.60;;
12921;SDS011;6528;48.086;16.282;2024-01-27T00:16:06;0.73;;;0.47;;
12921;SDS011;6528;48.086;16.282;2024-01-27T00:18:38;0.40;;;0.40;;
12921;SDS011;6528;48.086;16.282;2024-01-27T00:21:06;1.90;;;0.53;;
12921;SDS011;6528;48.086;16.282;2024-01-27T00:23:34;1.20;;;0.70;;
12921;SDS011;6528;48.086;16.282;2024-01-27T00:26:01;0.50;;;0.50;;
12921;SDS011;6528;48.086;16.282;2024-01-27T00:28:29;0.70;;;0.43;;
12921;SDS011;6528;48.086;16.282;2024-01-27T00:30:56;0.70;;;0.53;;
12921;SDS011;6528;48.086;16.282;2024-01-27T00:33:24;0.70;;;0.50;;
12921;SDS011;6528;48.086;16.282;2024-01-27T00:35:51;0.60;;;0.60;;
12921;SDS011;6528;48.086;16.282;2024-01-27T00:38:19;0.50;;;0.40;;
12921;SDS011;6528;48.086;16.282;2024-01-27T00:40:47;0.83;;;0.50;;
12921;SDS011;6528;48.086;16.282;2024-01-27T00:43:15;0.50;;;0.50;;
12921;SDS011;6528;48.086;16.282;2024-01-27T00:45:43;1.33;;;0.57;;
12921;SDS011;6528;48.086;16.282;2024-01-27T00:48:10;0.50;;;0.50;;
12921;SDS011;6528;48.086;16.282;2024-01-27T00:50:38;0.60;;;0.50;;
12921;SDS011;6528;48.086;16.282;2024-01-27T00:53:05;0.53;;;0.40;;
12921;SDS011;6528;48.086;16.282;2024-01-27T00:55:33;0.40;;;0.40;;
12921;SDS011;6528;48.086;16.282;2024-01-27T00:58:00;0.43;;;0.40;;
12921;SDS011;6528;48.086;16.282;2024-01-27T01:00:27;0.50;;;0.50;;
12921;SDS011;6528;48.086;16.282;2024-01-27T01:02:55;0.60;;;0.60;;
12921;SDS011;6528;48.086;16.282;2024-01-27T01:05:22;0.77;;;0.50;;
12921;SDS011;6528;48.086;16.282;2024-01-27T01:07:50;0.50;;;0.50;;
12921;SDS011;6528;48.086;16.282;2024-01-27T01:10:17;0.53;;;0.53;;
12921;SDS011;6528;48.086;16.282;2024-01-27T01:12:45;2.17;;;0.63;;
12921;SDS011;6528;48.086;16.282;2024-01-27T01:15:12;0.40;;;0.40;;
12921;SDS011;6528;48.086;16.282;2024-01-27T01:17:41;0.90;;;0.70;;
12921;SDS011;6528;48.086;16.282;2024-01-27T01:20:08;0.50;;;0.40;;
12921;SDS011;6528;48.086;16.282;2024-01-27T01:22:36;0.97;;;0.50;;
12921;SDS011;6528;48.086;16.282;2024-01-27T01:25:03;1.10;;;0.43;;
12921;SDS011;6528;48.086;16.282;2024-01-27T01:27:31;0.50;;;0.50;;
12921;SDS011;6528;48.086;16.282;2024-01-27T01:29:59;1.90;;;0.57;;
12921;SDS011;6528;48.086;16.282;2024-01-27T01:32:26;0.87;;;0.50;;
12921;SDS011;6528;48.086;16.282;2024-01-27T01:34:54;0.80;;;0.50;;
12921;SDS011;6528;48.086;16.282;2024-01-27T01:37:21;0.90;;;0.50;;
12921;SDS011;6528;48.086;16.282;2024-01-27T01:39:49;0.57;;;0.57;;
12921;SDS011;6528;48.086;16.282;2024-01-27T01:42:16;1.00;;;0.60;;
12921;SDS011;6528;48.086;16.282;2024-01-27T01:44:44;0.93;;;0.80;;
12921;SDS011;6528;48.086;16.282;2024-01-27T01:47:12;0.60;;;0.60;;
12921;SDS011;6528;48.086;16.282;2024-01-27T01:49:39;0.70;;;0.70;;
12921;SDS011;6528;48.086;16.282;2024-01-27T01:52:07;0.70;;;0.70;;
12921;SDS011;6528;48.086;16.282;2024-01-27T01:54:35;0.70;;;0.60;;
12921;SDS011;6528;48.086;16.282;2024-01-27T01:57:04;0.87;;;0.60;;
12921;SDS011;6528;48.086;16.282;2024-01-27T01:59:31;1.40;;;0.60;;
12921;SDS011;6528;48.086;16.282;2024-01-27T02:01:59;1.10;;;0.70;;
12921;SDS011;6528;48.086;16.282;2024-01-27T02:04:26;1.00;;;0.60;;
12921;SDS011;6528;48.086;16.282;2024-01-27T02:06:54;0.97;;;0.60;;
12921;SDS011;6528;48.086;16.282;2024-01-27T02:09:21;0.50;;;0.50;;
12921;SDS011;6528;48.086;16.282;2024-01-27T02:11:49;0.93;;;0.60;;
12921;SDS011;6528;48.086;16.282;2024-01-27T02:14:17;2.10;;;0.70;;
12921;SDS011;6528;48.086;16.282;2024-01-27T02:16:44;1.27;;;0.60;;
12921;SDS011;6528;48.086;16.282;2024-01-27T02:19:12;2.33;;;0.70;;
12921;SDS011;6528;48.086;16.282;2024-01-27T02:21:39;1.10;;;0.83;;
12921;SDS011;6528;48.086;16.282;2024-01-27T02:24:07;1.07;;;0.97;;
12921;SDS011;6528;48.086;16.282;2024-01-27T02:26:36;1.10;;;0.90;;
12921;SDS011;6528;48.086;16.282;2024-01-27T02:29:04;1.37;;;0.50;;
12921;SDS011;6528;48.086;16.282;2024-01-27T02:31:31;0.80;;;0.70;;
12921;SDS011;6528;48.086;16.282;2024-01-27T02:33:59;3.03;;;0.70;;
12921;SDS011;6528;48.086;16.282;2024-01-27T02:36:26;1.00;;;0.67;;
12921;SDS011;6528;48.086;16.282;2024-01-27T02:38:54;0.50;;;0.50;;
12921;SDS011;6528;48.086;16.282;2024-01-27T02:41:21;1.10;;;0.60;;
12921;SDS011;6528;48.086;16.282;2024-01-27T02:43:49;3.60;;;0.60;;
12921;SDS011;6528;48.086;16.282;2024-01-27T02:46:16;0.63;;;0.50;;
12921;SDS011;6528;48.086;16.282;2024-01-27T02:48:45;0.80;;;0.80;;
12921;SDS011;6528;48.086;16.282;2024-01-27T02:51:13;0.53;;;0.53;;
12921;SDS011;6528;48.086;16.282;2024-01-27T02:53:47;0.80;;;0.67;;
12921;SDS011;6528;48.086;16.282;2024-01-27T02:56:17;1.10;;;0.70;;
12921;SDS011;6528;48.086;16.282;2024-01-27T02:58:45;1.07;;;0.50;;
12921;SDS011;6528;48.086;16.282;2024-01-27T03:01:12;1.83;;;0.73;;
12921;SDS011;6528;48.086;16.282;2024-01-27T03:03:40;1.30;;;0.60;;
12921;SDS011;6528;48.086;16.282;2024-01-27T03:06:08;1.17;;;0.50;;
12921;SDS011;6528;48.086;16.282;2024-01-27T03:08:35;0.90;;;0.63;;
12921;SDS011;6528;48.086;16.282;2024-01-27T03:11:03;1.23;;;0.53;;
12921;SDS011;6528;48.086;16.282;2024-01-27T03:13:30;0.70;;;0.50;;
12921;SDS011;6528;48.086;16.282;2024-01-27T03:15:58;0.40;;;0.40;;
12921;SDS011;6528;48.086;16.282;2024-01-27T03:18:25;0.80;;;0.40;;
12921;SDS011;6528;48.086;16.282;2024-01-27T03:20:53;0.80;;;0.60;;
12921;SDS011;6528;48.086;16.282;2024-01-27T03:23:20;0.80;;;0.50;;
12921;SDS011;6528;48.086;16.282;2024-01-27T03:25:48;1.13;;;0.50;;
12921;SDS011;6528;48.086;16.282;2024-01-27T03:28:15;1.03;;;0.50;;
12921;SDS011;6528;48.086;16.282;2024-01-27T03:30:43;0.60;;;0.50;;
12921;SDS011;6528;48.086;16.282;2024-01-27T03:33:10;0.40;;;0.30;;
12921;SDS011;6528;48.086;16.282;2024-01-27T03:35:39;0.40;;;0.40;;
12921;SDS011;6528;48.086;16.282;2024-01-27T03:38:07;0.50;;;0.50;;
12921;SDS011;6528;48.086;16.282;2024-01-27T03:40:34;0.60;;;0.50;;
12921;SDS011;6528;48.086;16.282;2024-01-27T03:43:01;0.90;;;0.40;;
12921;SDS011;6528;48.086;16.282;2024-01-27T03:45:29;0.73;;;0.50;;
12921;SDS011;6528;48.086;16.282;2024-01-27T03:47:57;0.43;;;0.43;;
12921;SDS011;6528;48.086;16.282;2024-01-27T03:50:25;0.40;;;0.40;;
12921;SDS011;6528;48.086;16.282;2024-01-27T03:52:52;0.40;;;0.30;;
12921;SDS011;6528;48.086;16.282;2024-01-27T03:55:19;0.50;;;0.50;;
12921;SDS011;6528;48.086;16.282;2024-01-27T03:57:47;0.73;;;0.50;;
12921;SDS011;6528;48.086;16.282;2024-01-27T04:00:14;1.37;;;0.63;;
12921;SDS011;6528;48.086;16.282;2024-01-27T04:02:42;1.20;;;0.40;;
12921;SDS011;6528;48.086;16.282;2024-01-27T04:05:10;0.60;;;0.60;;
12921;SDS011;6528;48.086;16.282;2024-01-27T04:07:36;0.60;;;0.43;;
12921;SDS011;6528;48.086;16.282;2024-01-27T04:10:04;0.67;;;0.30;;
12921;SDS011;6528;48.086;16.282;2024-01-27T04:12:32;0.47;;;0.43;;
12921;SDS011;6528;48.086;16.282;2024-01-27T04:14:59;0.50;;;0.40;;
12921;SDS011;6528;48.086;16.282;2024-01-27T04:17:28;1.00;;;0.60;;
12921;SDS011;6528;48.086;16.282;2024-01-27T04:19:55;0.87;;;0.70;;
12921;SDS011;6528;48.086;16.282;2024-01-27T04:22:22;0.47;;;0.43;;
12921;SDS011;6528;48.086;16.282;2024-01-27T04:24:50;0.90;;;0.80;;
12921;SDS011;6528;48.086;16.282;2024-01-27T04:27:17;0.40;;;0.40;;
12921;SDS011;6528;48.086;16.282;2024-01-27T04:29:45;0.60;;;0.60;;
12921;SDS011;6528;48.086;16.282;2024-01-27T04:32:13;0.97;;;0.40;;
12921;SDS011;6528;48.086;16.282;2024-01-27T04:34:39;0.67;;;0.57;;
12921;SDS011;6528;48.086;16.282;2024-01-27T04:37:07;0.60;;;0.60;;
12921;SDS011;6528;48.086;16.282;2024-01-27T04:39:35;0.50;;;0.50;;
12921;SDS011;6528;48.086;16.282;2024-01-27T04:42:02;0.67;;;0.67;;
12921;SDS011;6528;48.086;16.282;2024-01-27T04:44:29;0.60;;;0.50;;
12921;SDS011;6528;48.086;16.282;2024-01-27T04:46:57;0.90;;;0.67;;
12921;SDS011;6528;48.086;16.282;2024-01-27T04:49:25;0.60;;;0.60;;
12921;SDS011;6528;48.086;16.282;2024-01-27T04:51:53;0.70;;;0.70;;
12921;SDS011;6528;48.086;16.282;2024-01-27T04:54:20;0.60;;;0.60;;
12921;SDS011;6528;48.086;16.282;2024-01-27T04:56:48;0.60;;;0.60;;
12921;SDS011;6528;48.086;16.282;2024-01-27T04:59:16;1.03;;;0.60;;
12921;SDS011;6528;48.086;16.282;2024-01-27T05:01:44;0.70;;;0.70;;
12921;SDS011;6528;48.086;16.282;2024-01-27T05:04:12;0.70;;;0.70;;
12921;SDS011;6528;48.086;16.282;2024-01-27T05:06:43;0.40;;;0.40;;
12921;SDS011;6528;48.086;16.282;2024-01-27T05:09:12;0.50;;;0.50;;
12921;SDS011;6528;48.086;16.282;2024-01-27T05:11:39;0.93;;;0.77;;
12921;SDS011;6528;48.086;16.282;2024-01-27T05:14:09;0.50;;;0.50;;
12921;SDS011;6528;48.086;16.282;2024-01-27T05:16:36;0.70;;;0.60;;
12921;SDS011;6528;48.086;16.282;2024-01-27T05:19:04;0.70;;;0.70;;
12921;SDS011;6528;48.086;16.282;2024-01-27T05:21:32;0.90;;;0.80;;
12921;SDS011;6528;48.086;16.282;2024-01-27T05:23:59;0.93;;;0.87;;
12921;SDS011;6528;48.086;16.282;2024-01-27T05:26:27;0.83;;;0.83;;
12921;SDS011;6528;48.086;16.282;2024-01-27T05:28:54;0.67;;;0.67;;
12921;SDS011;6528;48.086;16.282;2024-01-27T05:31:21;0.73;;;0.70;;
12921;SDS011;6528;48.086;16.282;2024-01-27T05:33:49;1.00;;;0.90;;
12921;SDS011;6528;48.086;16.282;2024-01-27T05:36:17;1.70;;;0.80;;
12921;SDS011;6528;48.086;16.282;2024-01-27T05:38:44;0.57;;;0.57;;
12921;SDS011;6528;48.086;16.282;2024-01-27T05:41:12;0.80;;;0.80;;
12921;SDS011;6528;48.086;16.282;2024-01-27T05:43:39;1.23;;;0.90;;
12921;SDS011;6528;48.086;16.282;2024-01-27T05:46:08;0.60;;;0.60;;
12921;SDS011;6528;48.086;16.282;2024-01-27T05:48:36;1.33;;;0.57;;
12921;SDS011;6528;48.086;16.282;2024-01-27T05:51:04;0.80;;;0.80;;
12921;SDS011;6528;48.086;16.282;2024-01-27T05:53:32;0.60;;;0.60;;
12921;SDS011;6528;48.086;16.282;2024-01-27T05:56:02;1.20;;;0.90;;
12921;SDS011;6528;48.086;16.282;2024-01-27T05:58:30;0.70;;;0.67;;
12921;SDS011;6528;48.086;16.282;2024-01-27T06:00:58;1.43;;;0.80;;
12921;SDS011;6528;48.086;16.282;2024-01-27T06:03:25;0.80;;;0.80;;
12921;SDS011;6528;48.086;16.282;2024-01-27T06:05:53;1.27;;;0.80;;
12921;SDS011;6528;48.086;16.282;2024-01-27T06:08:20;0.77;;;0.77;;
12921;SDS011;6528;48.086;16.282;2024-01-27T06:10:48;0.60;;;0.60;;
12921;SDS011;6528;48.086;16.282;2024-01-27T06:13:15;0.77;;;0.77;;
12921;SDS011;6528;48.086;16.282;2024-01-27T06:15:43;1.40;;;0.73;;
12921;SDS011;6528;48.086;16.282;2024-01-27T06:18:10;0.77;;;0.77;;
12921;SDS011;6528;48.086;16.282;2024-01-27T06:20:38;0.70;;;0.70;;
12921;SDS011;6528;48.086;16.282;2024-01-27T06:23:07;0.80;;;0.70;;
12921;SDS011;6528;48.086;16.282;2024-01-27T06:25:35;0.60;;;0.50;;
12921;SDS011;6528;48.086;16.282;2024-01-27T06:28:03;0.50;;;0.50;;
12921;SDS011;6528;48.086;16.282;2024-01-27T06:30:30;0.73;;;0.70;;
12921;SDS011;6528;48.086;16.282;2024-01-27T06:32:58;1.13;;;0.50;;
12921;SDS011;6528;48.086;16.282;2024-01-27T06:35:25;0.60;;;0.60;;
12921;SDS011;6528;48.086;16.282;2024-01-27T06:37:53;0.90;;;0.90;;
12921;SDS011;6528;48.086;16.282;2024-01-27T06:40:21;0.70;;;0.63;;
12921;SDS011;6528;48.086;16.282;2024-01-27T06:42:48;0.80;;;0.60;;
12921;SDS011;6528;48.086;16.282;2024-01-27T06:45:16;0.80;;;0.80;;
12921;SDS011;6528;48.086;16.282;2024-01-27T06:47:43;0.77;;;0.77;;
12921;SDS011;6528;48.086;16.282;2024-01-27T06:50:11;0.70;;;0.67;;
12921;SDS011;6528;48.086;16.282;2024-01-27T06:52:41;0.50;;;0.50;;
12921;SDS011;6528;48.086;16.282;2024-01-27T06:55:08;0.60;;;0.60;;
12921;SDS011;6528;48.086;16.282;2024-01-27T06:57:37;1.10;;;1.03;;
12921;SDS011;6528;48.086;16.282;2024-01-27T07:00:07;1.27;;;0.50;;
12921;SDS011;6528;48.086;16.282;2024-01-27T07:02:35;0.70;;;0.70;;
12921;SDS011;6528;48.086;16.282;2024-01-27T07:05:02;0.60;;;0.60;;
12921;SDS011;6528;48.086;16.282;2024-01-27T07:07:30;1.00;;;0.83;;
12921;SDS011;6528;48.086;16.282;2024-01-27T07:09:58;0.93;;;0.70;;
12921;SDS011;6528;48.086;16.282;2024-01-27T07:12:25;0.70;;;0.70;;
12921;SDS011;6528;48.086;16.282;2024-01-27T07:14:53;0.60;;;0.60;;
12921;SDS011;6528;48.086;16.282;2024-01-27T07:17:23;1.47;;;0.80;;
12921;SDS011;6528;48.086;16.282;2024-01-27T07:19:51;0.60;;;0.60;;
12921;SDS011;6528;48.086;16.282;2024-01-27T07:22:20;0.70;;;0.70;;
12921;SDS011;6528;48.086;16.282;2024-01-27T07:24:49;1.57;;;0.97;;
12921;SDS011;6528;48.086;16.282;2024-01-27T07:27:18;0.90;;;0.60;;
12921;SDS011;6528;48.086;16.282;2024-01-27T07:29:45;1.33;;;0.70;;
12921;SDS011;6528;48.086;16.282;2024-01-27T07:32:13;0.80;;;0.80;;
12921;SDS011;6528;48.086;16.282;2024-01-27T07:34:41;1.10;;;0.97;;
12921;SDS011;6528;48.086;16.282;2024-01-27T07:37:09;1.03;;;0.93;;
12921;SDS011;6528;48.086;16.282;2024-01-27T07:39:37;0.97;;;0.87;;
12921;SDS011;6528;48.086;16.282;2024-01-27T07:42:05;0.80;;;0.80;;
12921;SDS011;6528;48.086;16.282;2024-01-27T07:44:33;0.70;;;0.70;;
12921;SDS011;6528;48.086;16.282;2024-01-27T07:47:00;0.73;;;0.60;;
12921;SDS011;6528;48.086;16.282;2024-01-27T07:49:27;2.10;;;0.90;;
12921;SDS011;6528;48.086;16.282;2024-01-27T07:51:55;0.90;;;0.90;;
12921;SDS011;6528;48.086;16.282;2024-01-27T07:54:22;1.10;;;1.00;;
12921;SDS011;6528;48.086;16.282;2024-01-27T07:56:50;1.23;;;1.13;;
12921;SDS011;6528;48.086;16.282;2024-01-27T07:59:17;2.00;;;1.50;;
12921;SDS011;6528;48.086;16.282;2024-01-27T08:01:45;1.70;;;1.60;;
12921;SDS011;6528;48.086;16.282;2024-01-27T08:04:12;4.03;;;3.33;;
12921;SDS011;6528;48.086;16.282;2024-01-27T08:06:46;6.60;;;3.80;;
12921;SDS011;6528;48.086;16.282;2024-01-27T08:09:15;9.93;;;4.67;;
12921;SDS011;6528;48.086;16.282;2024-01-27T08:11:43;6.00;;;3.97;;
12921;SDS011;6528;48.086;16.282;2024-01-27T08:14:11;8.57;;;6.40;;
12921;SDS011;6528;48.086;16.282;2024-01-27T08:16:38;10.63;;;7.97;;
12921;SDS011;6528;48.086;16.282;2024-01-27T08:19:06;9.80;;;8.27;;
12921;SDS011;6528;48.086;16.282;2024-01-27T08:21:33;11.07;;;7.63;;
12921;SDS011;6528;48.086;16.282;2024-01-27T08:24:00;9.30;;;8.17;;
12921;SDS011;6528;48.086;16.282;2024-01-27T08:26:27;8.63;;;7.73;;
12921;SDS011;6528;48.086;16.282;2024-01-27T08:28:54;9.20;;;7.17;;
12921;SDS011;6528;48.086;16.282;2024-01-27T08:31:22;8.70;;;7.67;;
12921;SDS011;6528;48.086;16.282;2024-01-27T08:33:50;7.90;;;7.10;;
12921;SDS011;6528;48.086;16.282;2024-01-27T08:40:08;11.63;;;6.40;;
12921;SDS011;6528;48.086;16.282;2024-01-27T08:42:35;7.80;;;6.57;;
12921;SDS011;6528;48.086;16.282;2024-01-27T08:45:02;7.20;;;6.50;;
12921;SDS011;6528;48.086;16.282;2024-01-27T08:47:30;7.40;;;6.47;;
12921;SDS011;6528;48.086;16.282;2024-01-27T08:49:57;8.93;;;6.93;;
12921;SDS011;6528;48.086;16.282;2024-01-27T08:52:24;7.80;;;6.60;;
12921;SDS011;6528;48.086;16.282;2024-01-27T08:54:51;7.83;;;7.07;;
12921;SDS011;6528;48.086;16.282;2024-01-27T08:57:18;7.87;;;6.73;;
12921;SDS011;6528;48.086;16.282;2024-01-27T08:59:45;7.97;;;6.00;;
12921;SDS011;6528;48.086;16.282;2024-01-27T09:02:12;6.87;;;6.10;;
12921;SDS011;6528;48.086;16.282;2024-01-27T09:04:38;6.50;;;5.57;;
12921;SDS011;6528;48.086;16.282;2024-01-27T09:07:05;6.00;;;5.13;;
12921;SDS011;6528;48.086;16.282;2024-01-27T09:09:32;9.03;;;6.67;;
12921;SDS011;6528;48.086;16.282;2024-01-27T09:11:59;8.53;;;6.43;;
12921;SDS011;6528;48.086;16.282;2024-01-27T09:14:26;8.73;;;6.27;;
12921;SDS011;6528;48.086;16.282;2024-01-27T09:16:53;7.80;;;5.90;;
12921;SDS011;6528;48.086;16.282;2024-01-27T09:19:19;6.80;;;5.27;;
12921;SDS011;6528;48.086;16.282;2024-01-27T09:21:46;7.57;;;5.00;;
12921;SDS011;6528;48.086;16.282;2024-01-27T09:24:13;6.80;;;5.93;;
12921;SDS011;6528;48.086;16.282;2024-01-27T09:26:41;6.67;;;5.43;;
12921;SDS011;6528;48.086;16.282;2024-01-27T09:29:08;7.60;;;5.63;;
12921;SDS011;6528;48.086;16.282;2024-01-27T09:31:35;5.40;;;4.90;;
12921;SDS011;6528;48.086;16.282;2024-01-27T09:34:02;8.63;;;4.67;;
12921;SDS011;6528;48.086;16.282;2024-01-27T09:36:29;6.57;;;4.90;;
12921;SDS011;6528;48.086;16.282;2024-01-27T09:38:56;5.77;;;4.23;;
12921;SDS011;6528;48.086;16.282;2024-01-27T09:41:26;6.10;;;5.10;;
12921;SDS011;6528;48.086;16.282;2024-01-27T09:44:00;5.50;;;5.00;;
12921;SDS011;6528;48.086;16.282;2024-01-27T09:46:29;5.77;;;5.20;;
12921;SDS011;6528;48.086;16.282;2024-01-27T09:48:57;5.50;;;4.90;;
12921;SDS011;6528;48.086;16.282;2024-01-27T09:51:25;9.40;;;4.53;;
12921;SDS011;6528;48.086;16.282;2024-01-27T09:53:52;5.27;;;4.77;;
12921;SDS011;6528;48.086;16.282;2024-01-27T09:56:20;4.70;;;4.30;;
12921;SDS011;6528;48.086;16.282;2024-01-27T09:58:49;4.90;;;4.27;;
12921;SDS011;6528;48.086;16.282;2024-01-27T10:01:16;4.70;;;4.30;;
12921;SDS011;6528;48.086;16.282;2024-01-27T10:03:46;4.53;;;4.13;;
12921;SDS011;6528;48.086;16.282;2024-01-27T10:06:14;5.30;;;4.80;;
12921;SDS011;6528;48.086;16.282;2024-01-27T10:08:41;5.00;;;4.20;;
12921;SDS011;6528;48.086;16.282;2024-01-27T10:11:17;4.10;;;3.80;;
12921;SDS011;6528;48.086;16.282;2024-01-27T10:13:57;5.10;;;4.10;;
12921;SDS011;6528;48.086;16.282;2024-01-27T10:16:26;4.13;;;3.73;;
12921;SDS011;6528;48.086;16.282;2024-01-27T10:19:01;4.33;;;3.93;;
12921;SDS011;6528;48.086;16.282;2024-01-27T10:21:29;4.67;;;4.17;;
12921;SDS011;6528;48.086;16.282;2024-01-27T10:23:56;4.20;;;3.40;;
12921;SDS011;6528;48.086;16.282;2024-01-27T10:26:24;4.20;;;2.77;;
12921;SDS011;6528;48.086;16.282;2024-01-27T10:28:56;3.17;;;2.17;;
12921;SDS011;6528;48.086;16.282;2024-01-27T10:31:27;3.37;;;2.17;;
12921;SDS011;6528;48.086;16.282;2024-01-27T10:33:55;3.10;;;1.60;;
12921;SDS011;6528;48.086;16.282;2024-01-27T10:36:23;2.07;;;1.53;;
12921;SDS011;6528;48.086;16.282;2024-01-27T10:38:52;2.50;;;1.50;;
12921;SDS011;6528;48.086;16.282;2024-01-27T10:41:22;2.20;;;1.60;;
12921;SDS011;6528;48.086;16.282;2024-01-27T10:43:50;2.70;;;1.80;;
12921;SDS011;6528;48.086;16.282;2024-01-27T10:46:19;1.87;;;1.67;;
12921;SDS011;6528;48.086;16.282;2024-01-27T10:48:50;2.77;;;1.40;;
12921;SDS011;6528;48.086;16.282;2024-01-27T10:51:28;4.73;;;1.80;;
12921;SDS011;6528;48.086;16.282;2024-01-27T10:54:01;2.30;;;1.50;;
12921;SDS011;6528;48.086;16.282;2024-01-27T10:56:31;2.33;;;1.70;;
12921;SDS011;6528;48.086;16.282;2024-01-27T10:58:59;3.70;;;1.80;;
12921;SDS011;6528;48.086;16.282;2024-01-27T11:01:28;3.03;;;1.70;;
12921;SDS011;6528;48.086;16.282;2024-01-27T11:03:58;3.03;;;1.57;;
12921;SDS011;6528;48.086;16.282;2024-01-27T11:06:25;2.37;;;1.50;;
12921;SDS011;6528;48.086;16.282;2024-01-27T11:08:55;1.97;;;1.60;;
12921;SDS011;6528;48.086;16.282;2024-01-27T11:11:23;2.73;;;2.20;;
12921;SDS011;6528;48.086;16.282;2024-01-27T11:13:50;2.13;;;1.93;;
12921;SDS011;6528;48.086;16.282;2024-01-27T11:16:18;2.43;;;1.50;;
12921;SDS011;6528;48.086;16.282;2024-01-27T11:18:45;2.50;;;1.60;;
12921;SDS011;6528;48.086;16.282;2024-01-27T11:21:15;4.70;;;2.67;;
12921;SDS011;6528;48.086;16.282;2024-01-27T11:23:43;4.80;;;2.33;;
12921;SDS011;6528;48.086;16.282;2024-01-27T11:26:17;2.70;;;1.90;;
12921;SDS011;6528;48.086;16.282;2024-01-27T11:28:47;3.00;;;1.80;;
12921;SDS011;6528;48.086;16.282;2024-01-27T11:31:19;4.20;;;1.57;;
12921;SDS011;6528;48.086;16.282;2024-01-27T11:33:47;7.07;;;4.33;;
12921;SDS011;6528;48.086;16.282;2024-01-27T11:36:22;5.13;;;4.03;;
12921;SDS011;6528;48.086;16.282;2024-01-27T11:38:51;7.03;;;5.20;;
12921;SDS011;6528;48.086;16.282;2024-01-27T11:43:54;8.03;;;6.60;;
12921;SDS011;6528;48.086;16.282;2024-01-27T11:46:23;6.90;;;5.30;;
12921;SDS011;6528;48.086;16.282;2024-01-27T11:48:52;5.57;;;4.87;;
12921;SDS011;6528;48.086;16.282;2024-01-27T11:51:19;4.90;;;4.50;;
12921;SDS011;6528;48.086;16.282;2024-01-27T11:53:47;6.03;;;5.17;;
12921;SDS011;6528;48.086;16.282;2024-01-27T11:56:14;5.80;;;5.20;;
12921;SDS011;6528;48.086;16.282;2024-01-27T11:58:48;6.40;;;4.23;;
12921;SDS011;6528;48.086;16.282;2024-01-27T12:01:16;6.67;;;4.50;;
12921;SDS011;6528;48.086;16.282;2024-01-27T12:03:44;4.90;;;4.17;;
12921;SDS011;6528;48.086;16.282;2024-01-27T12:06:12;4.20;;;3.90;;
12921;SDS011;6528;48.086;16.282;2024-01-27T12:08:41;5.27;;;4.40;;
12921;SDS011;6528;48.086;16.282;2024-01-27T12:11:16;4.30;;;3.90;;
12921;SDS011;6528;48.086;16.282;2024-01-27T12:13:50;4.57;;;3.90;;
12921;SDS011;6528;48.086;16.282;2024-01-27T12:16:18;4.40;;;3.60;;
12921;SDS011;6528;48.086;16.282;2024-01-27T12:18:51;4.30;;;3.90;;
12921;SDS011;6528;48.086;16.282;2024-01-27T12:21:20;3.93;;;3.53;;
12921;SDS011;6528;48.086;16.282;2024-01-27T12:23:54;4.70;;;4.20;;
12921;SDS011;6528;48.086;16.282;2024-01-27T12:26:28;4.57;;;3.93;;
12921;SDS011;6528;48.086;16.282;2024-01-27T12:28:56;4.40;;;4.00;;
12921;SDS011;6528;48.086;16.282;2024-01-27T12:31:24;3.70;;;3.40;;
12921;SDS011;6528;48.086;16.282;2024-01-27T12:33:54;4.47;;;4.07;;
12921;SDS011;6528;48.086;16.282;2024-01-27T12:36:23;4.03;;;3.63;;
12921;SDS011;6528;48.086;16.282;2024-01-27T12:38:57;3.53;;;3.20;;
12921;SDS011;6528;48.086;16.282;2024-01-27T12:41:26;4.93;;;3.80;;
12921;SDS011;6528;48.086;16.282;2024-01-27T12:43:56;4.23;;;3.33;;
12921;SDS011;6528;48.086;16.282;2024-01-27T12:46:23;3.70;;;3.27;;
12921;SDS011;6528;48.086;16.282;2024-01-27T12:48:51;3.60;;;3.30;;
12921;SDS011;6528;48.086;16.282;2024-01-27T12:51:18;4.20;;;3.80;;
12921;SDS011;6528;48.086;16.282;2024-01-27T12:53:46;4.17;;;3.43;;
12921;SDS011;6528;48.086;16.282;2024-01-27T12:56:14;3.43;;;3.13;;
12921;SDS011;6528;48.086;16.282;2024-01-27T12:58:42;3.30;;;3.00;;
12921;SDS011;6528;48.086;16.282;2024-01-27T13:01:09;3.57;;;3.23;;
12921;SDS011;6528;48.086;16.282;2024-01-27T13:03:37;3.30;;;2.80;;
12921;SDS011;6528;48.086;16.282;2024-01-27T13:06:10;3.50;;;3.20;;
12921;SDS011;6528;48.086;16.282;2024-01-27T13:08:38;2.97;;;2.67;;
12921;SDS011;6528;48.086;16.282;2024-01-27T13:11:05;4.40;;;2.90;;
12921;SDS011;6528;48.086;16.282;2024-01-27T13:13:32;3.00;;;2.60;;
12921;SDS011;6528;48.086;16.282;2024-01-27T13:16:00;4.60;;;3.37;;
12921;SDS011;6528;48.086;16.282;2024-01-27T13:18:27;2.50;;;2.30;;
12921;SDS011;6528;48.086;16.282;2024-01-27T13:20:55;2.93;;;2.73;;
12921;SDS011;6528;48.086;16.282;2024-01-27T13:23:22;2.83;;;2.60;;
12921;SDS011;6528;48.086;16.282;2024-01-27T13:25:50;2.90;;;2.70;;
12921;SDS011;6528;48.086;16.282;2024-01-27T13:28:37;3.37;;;3.10;;
12921;SDS011;6528;48.086;16.282;2024-01-27T13:31:04;2.77;;;2.40;;
12921;SDS011;6528;48.086;16.282;2024-01-27T13:33:32;2.73;;;2.50;;
12921;SDS011;6528;48.086;16.282;2024-01-27T13:36:01;2.37;;;2.27;;
12921;SDS011;6528;48.086;16.282;2024-01-27T13:38:28;3.30;;;2.97;;
12921;SDS011;6528;48.086;16.282;2024-01-27T13:40:56;2.60;;;2.20;;
12921;SDS011;6528;48.086;16.282;2024-01-27T13:43:23;2.50;;;2.30;;
12921;SDS011;6528;48.086;16.282;2024-01-27T13:45:51;2.67;;;2.40;;
12921;SDS011;6528;48.086;16.282;2024-01-27T13:48:21;4.07;;;2.83;;
12921;SDS011;6528;48.086;16.282;2024-01-27T13:50:48;3.60;;;2.00;;
12921;SDS011;6528;48.086;16.282;2024-01-27T13:53:15;3.00;;;2.67;;
12921;SDS011;6528;48.086;16.282;2024-01-27T13:55:42;3.77;;;3.47;;
12921;SDS011;6528;48.086;16.282;2024-01-27T13:58:10;3.90;;;3.50;;
12921;SDS011;6528;48.086;16.282;2024-01-27T14:00:37;6.33;;;5.73;;
12921;SDS011;6528;48.086;16.282;2024-01-27T14:03:05;4.75;;;4.35;;
12921;SDS011;6528;48.086;16.282;2024-01-27T14:05:32;3.10;;;2.50;;
12921;SDS011;6528;48.086;16.282;2024-01-27T14:07:59;2.80;;;2.40;;
12921;SDS011;6528;48.086;16.282;2024-01-27T14:10:27;2.20;;;1.80;;
12921;SDS011;6528;48.086;16.282;2024-01-27T14:12:54;3.67;;;1.93;;
12921;SDS011;6528;48.086;16.282;2024-01-27T14:15:21;3.87;;;2.00;;
12921;SDS011;6528;48.086;16.282;2024-01-27T14:17:48;2.63;;;1.60;;
12921;SDS011;6528;48.086;16.282;2024-01-27T14:20:16;3.07;;;2.10;;
12921;SDS011;6528;48.086;16.282;2024-01-27T14:22:43;3.10;;;1.70;;
12921;SDS011;6528;48.086;16.282;2024-01-27T14:28:25;3.07;;;1.80;;
12921;SDS011;6528;48.086;16.282;2024-01-27T14:30:52;3.50;;;1.53;;
12921;SDS011;6528;48.086;16.282;2024-01-27T14:33:19;2.77;;;1.43;;
12921;SDS011;6528;48.086;16.282;2024-01-27T14:35:47;3.07;;;1.60;;
12921;SDS011;6528;48.086;16.282;2024-01-27T14:38:15;2.97;;;1.60;;
12921;SDS011;6528;48.086;16.282;2024-01-27T14:40:42;2.90;;;1.63;;
12921;SDS011;6528;48.086;16.282;2024-01-27T14:43:10;4.40;;;2.30;;
12921;SDS011;6528;48.086;16.282;2024-01-27T14:45:38;1.50;;;1.40;;
12921;SDS011;6528;48.086;16.282;2024-01-27T14:48:06;3.77;;;1.37;;
12921;SDS011;6528;48.086;16.282;2024-01-27T14:50:34;3.20;;;1.70;;
12921;SDS011;6528;48.086;16.282;2024-01-27T14:53:01;2.10;;;1.63;;
12921;SDS011;6528;48.086;16.282;2024-01-27T14:55:33;1.73;;;1.57;;
12921;SDS011;6528;48.086;16.282;2024-01-27T14:58:01;3.07;;;1.80;;
12921;SDS011;6528;48.086;16.282;2024-01-27T15:00:30;2.10;;;1.30;;
12921;SDS011;6528;48.086;16.282;2024-01-27T15:02:57;2.10;;;1.30;;